Hatsu Excel — VSXV3 — position and weather

sailwx.info

Track history (hours):
 
Tides and Currents Weather Stations Pressure Air Temp Water Temp Dewpoint Dewpoint Depression Visibility Wind Speed Wind Dir Waves Ship Positions

Hatsu Excel

Last reported at 2014-Jul-28 20:31 UTC. Time now 2014-Jul-28 20:37 UTC.
Position N 30°27' E 122°44'.

Type: Cargo ship. MMSI: 235479000.

Date/timePositionNaut miles runAvg speedWind from/ knotsBaromVisibWave heightAir tempDewpointWater temp
2014-Jul-28 20:31N 30°27' E 122°44'0 0.0
2014-Jul-28 19:32N 30°27' E 122°44'0 0.0
2014-Jul-28 18:32N 30°27' E 122°44'0 0.1
2014-Jul-28 17:29N 30°27' E 122°44'0 0.1
2014-Jul-28 16:29N 30°27' E 122°43'0 0.1
2014-Jul-28 15:32N 30°27' E 122°43'0 0.1
2014-Jul-28 14:26N 30°27' E 122°43'0 0.1
2014-Jul-28 13:32N 30°27' E 122°43'0 0.1
2014-Jul-28 12:32N 30°27' E 122°43'0 0.1
2014-Jul-28 11:29N 30°27' E 122°43'0 0.2
2014-Jul-28 10:29N 30°27' E 122°44'0 0.1
2014-Jul-28 09:32N 30°27' E 122°44'0 0.0
2014-Jul-28 08:29N 30°27' E 122°44'0 0.0
2014-Jul-28 07:32N 30°27' E 122°44'0 0.1
2014-Jul-28 06:29N 30°27' E 122°44'0 0.1
2014-Jul-28 05:27N 30°27' E 122°44'0 0.1
2014-Jul-28 04:33N 30°27' E 122°43'0 0.1
2014-Jul-28 03:33N 30°27' E 122°43'0 0.2
2014-Jul-28 02:33N 30°27' E 122°43'9 8.9
2014-Jul-28 01:33N 30°34' E 122°49'1413.9
2014-Jul-28 00:33N 30°44' E 123°01'1312.6
2014-Jul-27 23:33N 30°56' E 123°05'18212.8
2014-Jul-27 09:21N 33°57' E 122°39'14415.9
2014-Jul-27 00:18N 35°49' E 120°49'1216.2
2014-Jul-26 23:33N 35°57' E 120°38'1514.5
2014-Jul-26 22:32N 36°01' E 120°21'6 0.3
2014-Jul-26 01:15N 36°01' E 120°13'710.2
2014-Jul-26 00:33N 36°01' E 120°22'7 7.0
2014-Jul-25 23:33N 35°60' E 120°30'42211.1
2014-Jul-24 09:34N 35°06' E 129°04'0 0.0
2014-Jul-24 08:34N 35°06' E 129°04'0 0.0
2014-Jul-24 07:33N 35°06' E 129°04'0 0.0
2014-Jul-24 06:33N 35°06' E 129°04'0 0.0
2014-Jul-24 05:34N 35°06' E 129°04'0 0.0
2014-Jul-24 04:33N 35°06' E 129°04'0 0.0
2014-Jul-24 03:33N 35°06' E 129°04'0 0.0
2014-Jul-24 02:34N 35°06' E 129°04'0 0.0
2014-Jul-24 01:33N 35°06' E 129°04'0 0.0
2014-Jul-24 00:33N 35°06' E 129°04'0 0.0
2014-Jul-23 23:34N 35°06' E 129°04'0 0.1
2014-Jul-23 22:33N 35°06' E 129°04'7 6.7
2014-Jul-23 21:34N 35°02' E 129°10'292 8.6
2014-Jul-22 11:33N 34°00' E 134°57'1515.2
2014-Jul-22 10:33N 34°15' E 134°58'1515.0
2014-Jul-22 09:33N 34°28' E 135°07'1514.5
2014-Jul-22 08:33N 34°37' E 135°21'3 2.4
2014-Jul-22 07:27N 34°39' E 135°24'0 0.0
2014-Jul-22 06:27N 34°39' E 135°24'0 0.0
2014-Jul-22 05:30N 34°39' E 135°24'0 0.0
2014-Jul-22 04:34N 34°39' E 135°24'0 0.0
2014-Jul-22 03:32N 34°39' E 135°24'0 0.0
2014-Jul-22 02:18N 34°39' E 135°24'0 0.0
2014-Jul-22 01:24N 34°39' E 135°24'0 0.0
2014-Jul-22 00:24N 34°39' E 135°24'0 0.0
2014-Jul-21 23:30N 34°39' E 135°24'0 0.1
2014-Jul-21 22:33N 34°39' E 135°24'7 6.8
2014-Jul-21 21:33N 34°35' E 135°18'1716.9
2014-Jul-21 20:33N 34°22' E 135°04'519.0
2014-Jul-21 20:18N 34°18' E 135°00'1013.8
2014-Jul-21 19:33N 34°08' E 134°59'1514.4
2014-Jul-21 18:33N 33°54' E 134°58'23415.6
2014-Jul-21 03:33N 34°48' E 139°34'1818.1
2014-Jul-21 02:34N 35°04' E 139°43'1313.0
2014-Jul-21 01:33N 35°17' E 139°45'1212.1
2014-Jul-21 00:33N 35°29' E 139°50'8 8.2
2014-Jul-20 23:33N 35°37' E 139°47'0 0.1
2014-Jul-20 22:28N 35°37' E 139°47'0 0.0
2014-Jul-20 21:31N 35°37' E 139°47'0 0.0
2014-Jul-20 20:22N 35°37' E 139°47'0 0.1
2014-Jul-20 19:31N 35°37' E 139°47'0 0.0
2014-Jul-20 18:31N 35°37' E 139°47'0 0.0
2014-Jul-20 17:31N 35°37' E 139°47'0 0.0
2014-Jul-20 16:31N 35°37' E 139°47'0 0.0
2014-Jul-20 15:31N 35°37' E 139°47'0 0.0
2014-Jul-20 14:31N 35°37' E 139°47'0 0.0
2014-Jul-20 13:31N 35°37' E 139°47'0 0.0
2014-Jul-20 12:28N 35°37' E 139°47'0 0.0
2014-Jul-20 11:28N 35°37' E 139°47'0 0.1
2014-Jul-20 10:31N 35°37' E 139°47'0 0.0
2014-Jul-20 09:31N 35°37' E 139°47'0 0.0
2014-Jul-20 08:31N 35°37' E 139°47'0 0.0
2014-Jul-20 07:33N 35°37' E 139°47'0 0.0
2014-Jul-20 06:33N 35°37' E 139°47'0 0.0
2014-Jul-20 05:33N 35°37' E 139°47'0 0.0
2014-Jul-20 04:33N 35°37' E 139°47'0 0.2
2014-Jul-20 03:33N 35°36' E 139°47'9 8.6
2014-Jul-20 02:34N 35°29' E 139°51'1212.0
2014-Jul-20 01:33N 35°18' E 139°45'1110.5
2014-Jul-20 00:33N 35°07' E 139°46'1514.8
2014-Jul-19 23:33N 34°53' E 139°41'1413.6
2014-Jul-19 22:32N 34°49' E 139°57'1616.8
2014-Jul-19 21:33N 34°56' E 140°16'1717.2
2014-Jul-19 20:33N 35°06' E 140°32'1717.5
2014-Jul-19 19:33N 35°21' E 140°44'1716.8
2014-Jul-19 18:33N 35°35' E 140°56'1916.8
2014-Jul-19 17:24N 35°50' E 141°11'  
Track history (hours):
 
Tides and Currents Weather Stations Pressure Air Temp Water Temp Dewpoint Dewpoint Depression Visibility Wind Speed Wind Dir Waves Ship Positions

Hatsu Excel

Last reported at 2014-Jul-28 20:31 UTC. Time now 2014-Jul-28 20:37 UTC.
Position N 30°27' E 122°44'.

Type: Cargo ship. MMSI: 235479000.

Date/timePositionNaut miles runAvg speedWind from/ knotsBaromVisibWave heightAir tempDewpointWater temp
2014-Jul-28 20:31N 30°27' E 122°44'0 0.0
2014-Jul-28 19:32N 30°27' E 122°44'0 0.0
2014-Jul-28 18:32N 30°27' E 122°44'0 0.1
2014-Jul-28 17:29N 30°27' E 122°44'0 0.1
2014-Jul-28 16:29N 30°27' E 122°43'0 0.1
2014-Jul-28 15:32N 30°27' E 122°43'0 0.1
2014-Jul-28 14:26N 30°27' E 122°43'0 0.1
2014-Jul-28 13:32N 30°27' E 122°43'0 0.1
2014-Jul-28 12:32N 30°27' E 122°43'0 0.1
2014-Jul-28 11:29N 30°27' E 122°43'0 0.2
2014-Jul-28 10:29N 30°27' E 122°44'0 0.1
2014-Jul-28 09:32N 30°27' E 122°44'0 0.0
2014-Jul-28 08:29N 30°27' E 122°44'0 0.0
2014-Jul-28 07:32N 30°27' E 122°44'0 0.1
2014-Jul-28 06:29N 30°27' E 122°44'0 0.1
2014-Jul-28 05:27N 30°27' E 122°44'0 0.1
2014-Jul-28 04:33N 30°27' E 122°43'0 0.1
2014-Jul-28 03:33N 30°27' E 122°43'0 0.2
2014-Jul-28 02:33N 30°27' E 122°43'9 8.9
2014-Jul-28 01:33N 30°34' E 122°49'1413.9
2014-Jul-28 00:33N 30°44' E 123°01'1312.6
2014-Jul-27 23:33N 30°56' E 123°05'18212.8
2014-Jul-27 09:21N 33°57' E 122°39'14415.9
2014-Jul-27 00:18N 35°49' E 120°49'1216.2
2014-Jul-26 23:33N 35°57' E 120°38'1514.5
2014-Jul-26 22:32N 36°01' E 120°21'6 0.3
2014-Jul-26 01:15N 36°01' E 120°13'710.2
2014-Jul-26 00:33N 36°01' E 120°22'7 7.0
2014-Jul-25 23:33N 35°60' E 120°30'42211.1
2014-Jul-24 09:34N 35°06' E 129°04'0 0.0
2014-Jul-24 08:34N 35°06' E 129°04'0 0.0
2014-Jul-24 07:33N 35°06' E 129°04'0 0.0
2014-Jul-24 06:33N 35°06' E 129°04'0 0.0
2014-Jul-24 05:34N 35°06' E 129°04'0 0.0
2014-Jul-24 04:33N 35°06' E 129°04'0 0.0
2014-Jul-24 03:33N 35°06' E 129°04'0 0.0
2014-Jul-24 02:34N 35°06' E 129°04'0 0.0
2014-Jul-24 01:33N 35°06' E 129°04'0 0.0
2014-Jul-24 00:33N 35°06' E 129°04'0 0.0
2014-Jul-23 23:34N 35°06' E 129°04'0 0.1
2014-Jul-23 22:33N 35°06' E 129°04'7 6.7
2014-Jul-23 21:34N 35°02' E 129°10'292 8.6
2014-Jul-22 11:33N 34°00' E 134°57'1515.2
2014-Jul-22 10:33N 34°15' E 134°58'1515.0
2014-Jul-22 09:33N 34°28' E 135°07'1514.5
2014-Jul-22 08:33N 34°37' E 135°21'3 2.4
2014-Jul-22 07:27N 34°39' E 135°24'0 0.0
2014-Jul-22 06:27N 34°39' E 135°24'0 0.0
2014-Jul-22 05:30N 34°39' E 135°24'0 0.0
2014-Jul-22 04:34N 34°39' E 135°24'0 0.0
2014-Jul-22 03:32N 34°39' E 135°24'0 0.0
2014-Jul-22 02:18N 34°39' E 135°24'0 0.0
2014-Jul-22 01:24N 34°39' E 135°24'0 0.0
2014-Jul-22 00:24N 34°39' E 135°24'0 0.0
2014-Jul-21 23:30N 34°39' E 135°24'0 0.1
2014-Jul-21 22:33N 34°39' E 135°24'7 6.8
2014-Jul-21 21:33N 34°35' E 135°18'1716.9
2014-Jul-21 20:33N 34°22' E 135°04'519.0
2014-Jul-21 20:18N 34°18' E 135°00'1013.8
2014-Jul-21 19:33N 34°08' E 134°59'1514.4
2014-Jul-21 18:33N 33°54' E 134°58'23415.6
2014-Jul-21 03:33N 34°48' E 139°34'1818.1
2014-Jul-21 02:34N 35°04' E 139°43'1313.0
2014-Jul-21 01:33N 35°17' E 139°45'1212.1
2014-Jul-21 00:33N 35°29' E 139°50'8 8.2
2014-Jul-20 23:33N 35°37' E 139°47'0 0.1
2014-Jul-20 22:28N 35°37' E 139°47'0 0.0
2014-Jul-20 21:31N 35°37' E 139°47'0 0.0
2014-Jul-20 20:22N 35°37' E 139°47'0 0.1
2014-Jul-20 19:31N 35°37' E 139°47'0 0.0
2014-Jul-20 18:31N 35°37' E 139°47'0 0.0
2014-Jul-20 17:31N 35°37' E 139°47'0 0.0
2014-Jul-20 16:31N 35°37' E 139°47'0 0.0
2014-Jul-20 15:31N 35°37' E 139°47'0 0.0
2014-Jul-20 14:31N 35°37' E 139°47'0 0.0
2014-Jul-20 13:31N 35°37' E 139°47'0 0.0
2014-Jul-20 12:28N 35°37' E 139°47'0 0.0
2014-Jul-20 11:28N 35°37' E 139°47'0 0.1
2014-Jul-20 10:31N 35°37' E 139°47'0 0.0
2014-Jul-20 09:31N 35°37' E 139°47'0 0.0
2014-Jul-20 08:31N 35°37' E 139°47'0 0.0
2014-Jul-20 07:33N 35°37' E 139°47'0 0.0
2014-Jul-20 06:33N 35°37' E 139°47'0 0.0
2014-Jul-20 05:33N 35°37' E 139°47'0 0.0
2014-Jul-20 04:33N 35°37' E 139°47'0 0.2
2014-Jul-20 03:33N 35°36' E 139°47'9 8.6
2014-Jul-20 02:34N 35°29' E 139°51'1212.0
2014-Jul-20 01:33N 35°18' E 139°45'1110.5
2014-Jul-20 00:33N 35°07' E 139°46'1514.8
2014-Jul-19 23:33N 34°53' E 139°41'1413.6
2014-Jul-19 22:32N 34°49' E 139°57'1616.8
2014-Jul-19 21:33N 34°56' E 140°16'1717.2
2014-Jul-19 20:33N 35°06' E 140°32'1717.5
2014-Jul-19 19:33N 35°21' E 140°44'1716.8
2014-Jul-19 18:33N 35°35' E 140°56'1916.8
2014-Jul-19 17:24N 35°50' E 141°11'  

Dump ship's entire track history